createdAt,value
2023-03-29T00:00:38.705Z,23.7116
2023-03-29T00:01:40.139Z,23.7088
2023-03-29T00:02:53.386Z,23.7040
2023-03-29T00:03:43.066Z,23.6983
2023-03-29T00:04:44.436Z,23.6924
2023-03-29T00:05:45.945Z,23.6851
2023-03-29T00:06:47.284Z,23.6857
2023-03-29T00:07:48.729Z,23.6847
2023-03-29T00:08:50.167Z,23.6854
2023-03-29T00:09:51.563Z,23.6907
2023-03-29T00:10:52.998Z,23.6964
2023-03-29T00:11:54.422Z,23.6958
2023-03-29T00:12:55.848Z,23.6931
2023-03-29T00:13:57.298Z,23.6887
2023-03-29T00:14:58.722Z,23.6871
2023-03-29T00:16:00.145Z,23.6842
2023-03-29T00:17:01.613Z,23.6783
2023-03-29T00:18:02.999Z,23.6819
2023-03-29T00:19:04.443Z,23.6807
2023-03-29T00:20:05.854Z,23.6812
2023-03-29T00:21:07.302Z,23.6848
2023-03-29T00:22:08.741Z,23.6878
2023-03-29T00:23:10.171Z,23.6874
2023-03-29T00:24:11.560Z,23.6941
2023-03-29T00:25:13.074Z,23.6979
2023-03-29T00:26:14.489Z,23.6928
2023-03-29T00:27:15.889Z,23.6945
2023-03-29T00:28:17.336Z,23.7086
2023-03-29T00:29:18.801Z,23.7106
2023-03-29T00:30:20.159Z,23.7053
2023-03-29T00:31:21.646Z,23.6893
2023-03-29T00:32:23.051Z,23.6777
2023-03-29T00:33:24.475Z,23.6756
2023-03-29T00:34:25.899Z,23.6804
2023-03-29T00:35:27.360Z,23.6772
2023-03-29T00:36:28.771Z,23.6757
2023-03-29T00:37:30.217Z,23.6693
2023-03-29T00:38:31.773Z,23.6608
2023-03-29T00:39:33.032Z,23.6595
2023-03-29T00:40:34.466Z,23.6644
2023-03-29T00:41:35.914Z,23.6692
2023-03-29T00:42:37.363Z,23.6679
2023-03-29T00:43:38.749Z,23.6571
2023-03-29T00:44:40.171Z,23.6526
2023-03-29T00:45:41.588Z,23.6544
2023-03-29T00:46:43.117Z,23.6581
2023-03-29T00:47:44.542Z,23.6639
2023-03-29T00:48:45.922Z,23.6632
2023-03-29T00:49:47.300Z,23.6589
2023-03-29T00:50:48.772Z,23.6569
2023-03-29T00:51:50.177Z,23.6532
2023-03-29T00:52:51.602Z,23.6547
2023-03-29T00:53:53.032Z,23.6492
2023-03-29T00:54:54.457Z,23.6447
2023-03-29T00:55:55.886Z,23.6359
2023-03-29T00:56:57.430Z,23.6311
2023-03-29T00:57:58.742Z,23.6232
2023-03-29T00:59:00.172Z,23.6206
2023-03-29T01:00:01.609Z,23.6258
2023-03-29T01:01:03.316Z,23.6274
2023-03-29T01:02:04.503Z,23.6286
2023-03-29T01:03:05.961Z,23.6274
2023-03-29T01:04:07.312Z,23.6244
2023-03-29T01:05:08.719Z,23.6300
2023-03-29T01:06:10.126Z,23.6257
2023-03-29T01:07:11.632Z,23.6203
2023-03-29T01:08:12.992Z,23.6190
2023-03-29T01:09:14.428Z,23.6150
2023-03-29T01:10:15.844Z,23.6169
2023-03-29T01:11:17.524Z,23.6170
2023-03-29T01:12:18.704Z,23.6157
2023-03-29T01:13:20.110Z,23.6129
2023-03-29T01:14:21.542Z,23.6083
2023-03-29T01:15:23.020Z,23.6082
2023-03-29T01:16:24.420Z,23.6114
2023-03-29T01:17:25.919Z,23.6212
2023-03-29T01:18:27.269Z,23.6221
2023-03-29T01:19:28.726Z,23.6091
2023-03-29T01:20:30.133Z,23.6064
2023-03-29T01:21:31.610Z,23.6047
2023-03-29T01:22:33.008Z,23.6154
2023-03-29T01:23:34.431Z,23.6186
2023-03-29T01:24:35.865Z,23.6170
2023-03-29T01:25:37.293Z,23.6217
2023-03-29T01:26:38.722Z,23.6241
2023-03-29T01:27:40.160Z,23.6289
2023-03-29T01:28:41.547Z,23.6316
2023-03-29T01:29:42.992Z,23.6243
2023-03-29T01:30:44.423Z,23.6271
2023-03-29T01:31:45.976Z,23.6323
2023-03-29T01:32:47.293Z,23.6174
2023-03-29T01:33:48.738Z,23.6095
2023-03-29T01:34:50.098Z,23.6077
2023-03-29T01:35:51.589Z,23.6081
2023-03-29T01:36:52.951Z,23.6050
2023-03-29T01:37:54.450Z,23.5990
2023-03-29T01:38:55.817Z,23.5968
2023-03-29T01:39:57.254Z,23.5942
2023-03-29T01:40:58.663Z,23.5995
2023-03-29T01:42:00.102Z,23.5985
2023-03-29T01:43:01.560Z,23.5946
2023-03-29T01:44:03.011Z,23.5922
2023-03-29T01:45:04.384Z,23.5888
2023-03-29T01:46:05.830Z,23.5928
2023-03-29T01:47:07.270Z,23.5935
2023-03-29T01:48:08.691Z,23.5891
2023-03-29T01:49:10.087Z,23.5895
2023-03-29T01:50:11.550Z,23.5898
2023-03-29T01:51:12.947Z,23.5898
2023-03-29T01:52:14.391Z,23.5889
2023-03-29T01:53:15.824Z,23.5896
2023-03-29T01:54:17.244Z,23.5891
2023-03-29T01:55:18.659Z,23.5906
2023-03-29T01:56:20.101Z,23.5858
2023-03-29T01:57:21.536Z,23.5759
2023-03-29T01:58:22.946Z,23.5727
2023-03-29T01:59:24.341Z,23.5764
2023-03-29T02:00:25.796Z,23.5786
2023-03-29T02:01:27.248Z,23.5744
2023-03-29T02:02:28.754Z,23.5732
2023-03-29T02:03:30.140Z,23.5760
2023-03-29T02:04:31.492Z,23.5734
2023-03-29T02:05:32.922Z,23.5737
2023-03-29T02:06:34.445Z,23.5733
2023-03-29T02:07:35.761Z,23.5736
2023-03-29T02:08:37.229Z,23.5723
2023-03-29T02:09:38.630Z,23.5712
2023-03-29T02:10:40.080Z,23.5725
2023-03-29T02:11:41.466Z,23.5697
2023-03-29T02:12:42.929Z,23.5690
2023-03-29T02:13:44.441Z,23.5667
2023-03-29T02:14:45.867Z,23.5620
2023-03-29T02:15:47.386Z,23.5530
2023-03-29T02:16:48.702Z,23.5455
2023-03-29T02:17:50.174Z,23.5434
2023-03-29T02:18:51.543Z,23.5416
2023-03-29T02:19:52.984Z,23.5430
2023-03-29T02:20:54.398Z,23.5509
2023-03-29T02:21:55.813Z,23.5515
2023-03-29T02:22:57.278Z,23.5508
2023-03-29T02:23:58.676Z,23.5505
2023-03-29T02:25:00.132Z,23.5484
2023-03-29T02:26:01.521Z,23.5478
2023-03-29T02:27:02.949Z,23.5494
2023-03-29T02:28:04.384Z,23.5478
2023-03-29T02:29:05.806Z,23.5450
2023-03-29T02:30:07.238Z,23.5423
2023-03-29T02:31:08.687Z,23.5454
2023-03-29T02:32:10.073Z,23.5449
2023-03-29T02:33:11.625Z,23.5468
2023-03-29T02:34:12.977Z,23.5484
2023-03-29T02:35:14.339Z,23.5539
2023-03-29T02:36:15.779Z,23.5592
2023-03-29T02:37:17.193Z,23.5599
2023-03-29T02:38:18.660Z,23.5512
2023-03-29T02:39:20.049Z,23.5506
2023-03-29T02:40:21.490Z,23.5510
2023-03-29T02:41:22.893Z,23.5412
2023-03-29T02:42:24.318Z,23.5407
2023-03-29T02:43:26.139Z,23.5461
2023-03-29T02:44:27.160Z,23.5472
2023-03-29T02:45:28.618Z,23.5528
2023-03-29T02:46:30.055Z,23.5595
2023-03-29T02:47:31.506Z,23.5572
2023-03-29T02:48:32.945Z,23.5496
2023-03-29T02:49:34.309Z,23.5384
2023-03-29T02:50:35.733Z,23.5449
2023-03-29T02:51:37.160Z,23.5494
2023-03-29T02:52:38.590Z,23.5506
2023-03-29T02:53:40.052Z,23.5554
2023-03-29T02:54:41.437Z,23.5551
2023-03-29T02:55:42.964Z,23.5563
2023-03-29T02:56:44.334Z,23.5628
2023-03-29T02:57:45.755Z,23.5590
2023-03-29T02:58:47.183Z,23.5465
2023-03-29T02:59:48.604Z,23.5510
2023-03-29T03:00:50.005Z,23.5491
2023-03-29T03:01:51.512Z,23.5418
2023-03-29T03:02:52.965Z,23.5481
2023-03-29T03:03:54.354Z,23.5541
2023-03-29T03:04:55.757Z,23.5500
2023-03-29T03:05:57.161Z,23.5545
2023-03-29T03:06:58.576Z,23.5573
2023-03-29T03:08:00.013Z,23.5588
2023-03-29T03:09:02.022Z,23.5555
2023-03-29T03:10:02.887Z,23.5504
2023-03-29T03:11:04.507Z,23.5474
2023-03-29T03:12:05.734Z,23.5467
2023-03-29T03:13:07.168Z,23.5416
2023-03-29T03:14:08.606Z,23.5335
2023-03-29T03:15:10.024Z,23.5285
2023-03-29T03:16:11.456Z,23.5335
2023-03-29T03:17:12.859Z,23.5420
2023-03-29T03:18:14.294Z,23.5455
2023-03-29T03:19:15.740Z,23.5547
2023-03-29T03:20:17.147Z,23.5553
2023-03-29T03:21:18.589Z,23.5396
2023-03-29T03:22:20.006Z,23.5371
2023-03-29T03:23:21.489Z,23.5411
2023-03-29T03:24:22.860Z,23.5395
2023-03-29T03:25:24.259Z,23.5309
2023-03-29T03:26:25.692Z,23.5324
2023-03-29T03:27:27.147Z,23.5261
2023-03-29T03:28:28.653Z,23.5299
2023-03-29T03:29:30.006Z,23.5316
2023-03-29T03:30:31.464Z,23.5351
2023-03-29T03:31:32.928Z,23.5476
2023-03-29T03:32:34.327Z,23.5588
2023-03-29T03:33:35.726Z,23.5563
2023-03-29T03:34:37.148Z,23.5494
2023-03-29T03:35:38.589Z,23.5429
2023-03-29T03:36:39.984Z,23.5372
2023-03-29T03:37:41.408Z,23.5376
2023-03-29T03:38:42.869Z,23.5341
2023-03-29T03:39:44.274Z,23.5497
2023-03-29T03:40:45.702Z,23.5509
2023-03-29T03:41:47.155Z,23.5486
2023-03-29T03:42:48.541Z,23.5523
2023-03-29T03:43:49.970Z,23.5482
2023-03-29T03:44:51.427Z,23.5472
2023-03-29T03:45:52.927Z,23.5508
2023-03-29T03:46:54.251Z,23.5456
2023-03-29T03:47:55.675Z,23.5283
2023-03-29T03:48:57.161Z,23.5337
2023-03-29T03:49:58.534Z,23.5422
2023-03-29T03:51:00.052Z,23.5324
2023-03-29T03:52:01.389Z,23.5356
2023-03-29T03:53:02.808Z,23.5281
2023-03-29T03:54:04.292Z,23.5139
2023-03-29T03:55:05.691Z,23.5027
2023-03-29T03:56:07.090Z,23.5076
2023-03-29T03:57:08.528Z,23.5186
2023-03-29T03:58:09.962Z,23.5143
2023-03-29T03:59:11.400Z,23.5105
2023-03-29T04:00:12.804Z,23.5111
2023-03-29T04:01:14.237Z,23.5484
2023-03-29T04:02:15.735Z,23.5604
2023-03-29T04:03:17.263Z,23.5569
2023-03-29T04:04:18.552Z,23.5500
2023-03-29T04:05:20.024Z,23.5197
2023-03-29T04:06:21.363Z,23.5047
2023-03-29T04:07:22.820Z,23.5166
2023-03-29T04:08:24.233Z,23.5543
2023-03-29T04:09:25.696Z,23.5631
2023-03-29T04:10:27.100Z,23.5658
2023-03-29T04:11:28.538Z,23.5760
2023-03-29T04:12:29.981Z,23.5731
2023-03-29T04:13:31.384Z,23.5672
2023-03-29T04:14:32.808Z,23.5480
2023-03-29T04:15:34.304Z,23.5454
2023-03-29T04:16:35.663Z,23.5407
2023-03-29T04:17:37.201Z,23.5329
2023-03-29T04:18:38.593Z,23.5295
2023-03-29T04:19:39.988Z,23.5233
2023-03-29T04:20:41.376Z,23.5181
2023-03-29T04:21:42.823Z,23.5124
2023-03-29T04:22:44.325Z,23.5067
2023-03-29T04:23:45.678Z,23.4940
2023-03-29T04:24:47.100Z,23.4950
2023-03-29T04:25:48.528Z,23.4988
2023-03-29T04:26:49.958Z,23.5034
2023-03-29T04:27:51.389Z,23.5010
2023-03-29T04:28:52.797Z,23.4922
2023-03-29T04:29:54.267Z,23.4939
2023-03-29T04:30:55.658Z,23.4983
2023-03-29T04:31:57.096Z,23.5026
2023-03-29T04:32:58.606Z,23.5025
2023-03-29T04:34:00.514Z,23.4992
2023-03-29T04:35:01.441Z,23.4966
2023-03-29T04:36:02.837Z,23.4967
2023-03-29T04:37:04.220Z,23.4857
2023-03-29T04:38:05.652Z,23.4817
2023-03-29T04:39:07.104Z,23.4809
2023-03-29T04:40:08.540Z,23.4726
2023-03-29T04:41:10.963Z,23.4671
2023-03-29T04:42:11.459Z,23.4660
2023-03-29T04:43:12.804Z,23.4614
2023-03-29T04:44:14.218Z,23.4690
2023-03-29T04:45:15.722Z,23.4696
2023-03-29T04:46:17.148Z,23.4686
2023-03-29T04:47:18.500Z,23.4739
2023-03-29T04:48:19.937Z,23.4841
2023-03-29T04:49:21.802Z,23.4785
2023-03-29T04:50:22.797Z,23.4765
2023-03-29T04:51:24.237Z,23.4775
2023-03-29T04:52:25.662Z,23.4804
2023-03-29T04:53:27.080Z,23.4818
2023-03-29T04:54:28.536Z,23.4823
2023-03-29T04:55:29.925Z,23.4757
2023-03-29T04:56:31.375Z,23.4796
2023-03-29T04:57:32.793Z,23.4784
2023-03-29T04:58:34.230Z,23.4899
2023-03-29T04:59:35.664Z,23.5119
2023-03-29T05:00:37.090Z,23.5005
2023-03-29T05:01:42.738Z,23.4855
2023-03-29T05:02:39.316Z,23.4949
2023-03-29T05:03:41.365Z,23.3678
2023-03-29T05:04:42.873Z,23.2163
2023-03-29T05:05:44.211Z,23.0036
2023-03-29T05:06:45.632Z,22.8473
2023-03-29T05:07:47.083Z,22.7137
2023-03-29T05:08:48.471Z,22.5893
2023-03-29T05:09:49.924Z,22.4623
2023-03-29T05:10:51.325Z,22.4610
2023-03-29T05:11:52.772Z,22.5681
2023-03-29T05:12:54.461Z,22.6648
2023-03-29T05:13:55.633Z,22.7501
2023-03-29T05:14:57.013Z,22.8232
2023-03-29T05:15:58.490Z,22.8963
2023-03-29T05:16:59.905Z,22.9453
2023-03-29T05:18:01.374Z,22.9591
2023-03-29T05:19:02.755Z,23.0199
2023-03-29T05:20:04.182Z,23.0794
2023-03-29T05:21:05.613Z,23.0776
2023-03-29T05:22:07.044Z,23.0604
2023-03-29T05:23:08.426Z,23.0481
2023-03-29T05:24:09.909Z,23.0266
2023-03-29T05:25:11.318Z,23.0109
2023-03-29T05:26:12.729Z,22.9879
2023-03-29T05:27:14.181Z,22.9875
2023-03-29T05:28:15.589Z,22.9757
2023-03-29T05:29:17.017Z,22.9616
2023-03-29T05:30:18.433Z,22.9067
2023-03-29T05:31:19.919Z,22.8953
2023-03-29T05:32:22.097Z,22.9430
2023-03-29T05:33:22.749Z,22.9490
2023-03-29T05:34:24.155Z,22.9821
2023-03-29T05:35:25.545Z,23.0141
2023-03-29T05:36:26.993Z,23.0318
2023-03-29T05:37:28.404Z,23.0322
2023-03-29T05:38:29.829Z,23.0558
2023-03-29T05:39:31.253Z,23.0787
2023-03-29T05:40:32.725Z,23.1096
2023-03-29T05:41:34.116Z,23.1291
2023-03-29T05:42:35.552Z,23.1447
2023-03-29T05:43:37.000Z,23.1536
2023-03-29T05:44:38.454Z,23.1722
2023-03-29T05:45:39.818Z,23.1931
2023-03-29T05:46:41.305Z,23.2285
2023-03-29T05:47:42.847Z,23.2577
2023-03-29T05:48:44.079Z,23.2933
2023-03-29T05:49:45.639Z,23.3039
2023-03-29T05:50:47.040Z,23.3102
2023-03-29T05:51:48.377Z,23.3095
2023-03-29T05:52:49.783Z,23.2973
2023-03-29T05:53:51.215Z,23.2858
2023-03-29T05:54:52.633Z,23.2937
2023-03-29T05:55:54.106Z,23.2655
2023-03-29T05:56:55.534Z,23.2822
2023-03-29T05:57:56.925Z,23.2994
2023-03-29T05:58:58.363Z,23.2336
2023-03-29T05:59:59.818Z,23.1990
2023-03-29T06:01:01.479Z,23.2088
2023-03-29T06:02:02.737Z,23.2338
2023-03-29T06:03:17.651Z,23.2473
2023-03-29T06:04:05.504Z,23.2688
2023-03-29T06:05:06.996Z,23.2927
2023-03-29T06:06:08.343Z,23.3071
2023-03-29T06:07:09.785Z,23.3137
2023-03-29T06:08:11.210Z,23.3349
2023-03-29T06:09:12.628Z,23.3324
2023-03-29T06:10:14.064Z,23.3098
2023-03-29T06:11:15.468Z,23.2781
2023-03-29T06:12:16.931Z,23.2527
2023-03-29T06:13:18.328Z,23.2212
2023-03-29T06:14:19.755Z,23.2229
2023-03-29T06:15:21.313Z,23.2443
2023-03-29T06:16:22.765Z,23.2681
2023-03-29T06:17:24.219Z,23.3103
2023-03-29T06:18:25.565Z,23.3215
2023-03-29T06:19:26.974Z,23.3020
2023-03-29T06:20:28.400Z,23.2842
2023-03-29T06:21:29.829Z,23.2808
2023-03-29T06:22:31.250Z,23.3044
2023-03-29T06:23:32.666Z,23.2951
2023-03-29T06:24:34.087Z,23.2577
2023-03-29T06:25:35.514Z,23.2301
2023-03-29T06:26:36.962Z,23.2007
2023-03-29T06:27:38.377Z,23.1772
2023-03-29T06:28:39.782Z,23.1581
2023-03-29T06:29:41.249Z,23.1371
2023-03-29T06:30:42.642Z,23.1160
2023-03-29T06:31:44.154Z,23.0940
2023-03-29T06:32:45.554Z,23.0762
2023-03-29T06:33:46.965Z,23.0590
2023-03-29T06:34:48.362Z,23.0431
2023-03-29T06:35:49.907Z,23.0323
2023-03-29T06:36:51.202Z,23.0291
2023-03-29T06:37:52.644Z,23.0163
2023-03-29T06:38:54.082Z,23.0199
2023-03-29T06:39:55.505Z,23.0121
2023-03-29T06:40:56.948Z,22.9993
2023-03-29T06:41:58.351Z,22.9904
2023-03-29T06:42:59.762Z,22.9957
2023-03-29T06:44:01.218Z,23.0131
2023-03-29T06:45:02.666Z,23.0065
2023-03-29T06:46:04.138Z,22.9842
2023-03-29T06:47:05.577Z,23.0047
2023-03-29T06:48:06.972Z,23.0402
2023-03-29T06:49:08.350Z,23.0556
2023-03-29T06:50:09.798Z,23.0723
2023-03-29T06:51:11.201Z,23.0791
2023-03-29T06:52:12.665Z,23.0856
2023-03-29T06:53:14.060Z,23.0854
2023-03-29T06:54:15.469Z,23.0896
2023-03-29T06:55:16.878Z,23.0945
2023-03-29T06:56:18.335Z,23.0984
2023-03-29T06:57:19.848Z,23.1085
2023-03-29T06:58:21.175Z,23.1161
2023-03-29T06:59:22.628Z,23.1164
2023-03-29T07:00:24.038Z,23.1220
2023-03-29T07:01:25.486Z,23.1323
2023-03-29T07:02:26.947Z,23.1379
2023-03-29T07:03:28.319Z,23.1335
2023-03-29T07:04:29.831Z,23.1540
2023-03-29T07:05:31.174Z,23.1667
2023-03-29T07:06:32.605Z,23.1590
2023-03-29T07:07:34.028Z,23.1760
2023-03-29T07:08:35.442Z,23.2155
2023-03-29T07:09:36.874Z,23.2102
2023-03-29T07:10:38.357Z,23.2221
2023-03-29T07:11:39.747Z,23.2309
2023-03-29T07:12:41.146Z,23.2297
2023-03-29T07:13:42.807Z,23.2525
2023-03-29T07:14:46.242Z,23.2614
2023-03-29T07:15:45.425Z,23.2529
2023-03-29T07:16:47.104Z,23.2384
2023-03-29T07:17:48.289Z,23.2413
2023-03-29T07:18:49.701Z,23.2750
2023-03-29T07:19:51.109Z,23.2811
2023-03-29T07:20:52.594Z,23.2900
2023-03-29T07:21:54.014Z,23.3177
2023-03-29T07:22:55.405Z,23.3161
2023-03-29T07:23:56.820Z,23.3381
2023-03-29T07:24:58.244Z,23.3640
2023-03-29T07:25:59.649Z,23.3651
2023-03-29T07:27:04.486Z,23.3542
2023-03-29T07:28:02.499Z,23.3461
2023-03-29T07:29:03.925Z,23.3406
2023-03-29T07:30:05.348Z,23.3177
2023-03-29T07:31:06.814Z,23.3002
2023-03-29T07:32:08.290Z,23.2982
2023-03-29T07:33:09.782Z,23.2968
2023-03-29T07:34:11.134Z,23.3255
2023-03-29T07:35:12.529Z,23.3919
2023-03-29T07:36:13.993Z,23.3795
2023-03-29T07:37:15.371Z,23.3804
2023-03-29T07:38:16.828Z,23.3726
2023-03-29T07:39:18.206Z,23.3521
2023-03-29T07:40:19.639Z,23.3381
2023-03-29T07:41:21.050Z,23.3338
2023-03-29T07:42:22.493Z,23.3306
2023-03-29T07:43:23.902Z,23.3210
2023-03-29T07:44:25.333Z,23.3205
2023-03-29T07:45:28.587Z,23.3272
2023-03-29T07:46:28.225Z,23.3316
2023-03-29T07:47:29.649Z,23.3332
2023-03-29T07:48:31.024Z,23.3365
2023-03-29T07:49:32.464Z,23.3417
2023-03-29T07:50:33.877Z,23.3495
2023-03-29T07:51:35.315Z,23.3651
2023-03-29T07:52:36.735Z,23.3942
2023-03-29T07:53:38.174Z,23.4007
2023-03-29T07:54:39.600Z,23.4099
2023-03-29T07:55:41.001Z,23.4048
2023-03-29T07:56:42.449Z,23.3941
2023-03-29T07:57:43.857Z,23.3809
2023-03-29T07:58:45.297Z,23.3739
2023-03-29T07:59:46.723Z,23.3795
2023-03-29T08:00:48.151Z,23.3833
2023-03-29T08:01:49.567Z,23.4305
2023-03-29T08:02:51.025Z,23.4685
2023-03-29T08:03:52.550Z,23.4691
2023-03-29T08:04:54.032Z,23.4565
2023-03-29T08:05:55.283Z,23.4459
2023-03-29T08:06:56.695Z,23.4375
2023-03-29T08:07:58.125Z,23.4347
2023-03-29T08:08:59.554Z,23.4410
2023-03-29T08:10:01.001Z,23.4435
2023-03-29T08:11:02.585Z,23.4496
2023-03-29T08:12:03.822Z,23.3529
2023-03-29T08:13:05.257Z,23.1719
2023-03-29T08:14:06.710Z,23.0880
2023-03-29T08:15:08.194Z,22.9902
2023-03-29T08:16:09.542Z,22.8700
2023-03-29T08:17:11.050Z,22.7393
2023-03-29T08:18:12.470Z,22.6046
2023-03-29T08:19:13.810Z,22.6211
2023-03-29T08:20:15.249Z,22.6754
2023-03-29T08:21:16.665Z,22.7325
2023-03-29T08:22:18.102Z,22.8067
2023-03-29T08:23:19.538Z,22.8649
2023-03-29T08:24:21.174Z,22.8997
2023-03-29T08:25:22.383Z,22.9642
2023-03-29T08:26:23.803Z,23.0118
2023-03-29T08:27:25.214Z,23.0633
2023-03-29T08:28:26.684Z,23.1339
2023-03-29T08:29:28.082Z,23.1487
2023-03-29T08:30:29.519Z,23.0718
2023-03-29T08:31:31.004Z,22.9691
2023-03-29T08:32:32.383Z,22.7594
2023-03-29T08:33:33.809Z,22.5551
2023-03-29T08:34:35.205Z,22.2257
2023-03-29T08:35:36.662Z,22.1091
2023-03-29T08:36:38.060Z,22.2175
2023-03-29T08:37:39.491Z,22.2891
2023-03-29T08:38:40.986Z,22.3300
2023-03-29T08:39:42.359Z,22.3990
2023-03-29T08:40:43.761Z,22.4645
2023-03-29T08:41:45.171Z,22.5337
2023-03-29T08:42:46.596Z,22.6017
2023-03-29T08:43:48.050Z,22.6520
2023-03-29T08:44:49.470Z,22.6855
2023-03-29T08:45:51.236Z,22.7229
2023-03-29T08:46:52.358Z,22.7670
2023-03-29T08:47:53.818Z,22.8083
2023-03-29T08:48:55.197Z,22.8482
2023-03-29T08:49:56.597Z,22.8711
2023-03-29T08:50:58.022Z,22.8807
2023-03-29T08:51:59.451Z,22.8888
2023-03-29T08:53:00.866Z,22.9063
2023-03-29T08:54:02.326Z,22.9201
2023-03-29T08:55:03.732Z,22.9304
2023-03-29T08:56:05.201Z,22.9455
2023-03-29T08:57:06.589Z,22.9623
2023-03-29T08:58:08.004Z,22.9798
2023-03-29T08:59:09.483Z,22.9990
2023-03-29T09:00:10.867Z,23.0216
2023-03-29T09:01:12.344Z,23.0403
2023-03-29T09:02:13.749Z,23.0548
2023-03-29T09:03:15.213Z,23.0679
2023-03-29T09:04:16.605Z,23.0870
2023-03-29T09:05:18.049Z,23.0966
2023-03-29T09:06:19.454Z,23.1065
2023-03-29T09:07:20.889Z,23.1105
2023-03-29T09:08:22.302Z,23.1203
2023-03-29T09:09:23.750Z,23.1317
2023-03-29T09:10:25.183Z,23.1457
2023-03-29T09:11:26.627Z,23.1568
2023-03-29T09:12:28.013Z,23.1669
2023-03-29T09:13:29.535Z,23.1713
2023-03-29T09:14:30.873Z,23.1825
2023-03-29T09:15:32.391Z,23.1976
2023-03-29T09:16:33.764Z,23.2131
2023-03-29T09:17:35.186Z,23.2283
2023-03-29T09:18:36.632Z,23.2485
2023-03-29T09:19:38.030Z,23.2677
2023-03-29T09:20:39.516Z,23.2794
2023-03-29T09:21:40.872Z,23.2919
2023-03-29T09:22:42.313Z,23.3078
2023-03-29T09:23:43.744Z,23.3199
2023-03-29T09:24:45.177Z,23.3244
2023-03-29T09:25:53.554Z,23.3351
2023-03-29T09:26:48.041Z,23.3492
2023-03-29T09:27:49.461Z,23.3563
2023-03-29T09:28:50.896Z,23.3633
2023-03-29T09:29:52.299Z,23.3686
2023-03-29T09:30:53.750Z,23.3640
2023-03-29T09:31:55.153Z,23.3719
2023-03-29T09:32:56.652Z,23.3799
2023-03-29T09:33:57.994Z,23.3877
2023-03-29T09:34:59.444Z,23.3870
2023-03-29T09:36:00.899Z,23.3844
2023-03-29T09:37:02.272Z,23.3911
2023-03-29T09:38:03.702Z,23.3956
2023-03-29T09:39:05.157Z,23.3898
2023-03-29T09:40:06.568Z,23.3861
2023-03-29T09:41:07.997Z,23.3813
2023-03-29T09:42:09.494Z,23.3707
2023-03-29T09:43:10.853Z,23.3562
2023-03-29T09:44:20.773Z,23.2857
2023-03-29T09:45:13.718Z,23.2774
2023-03-29T09:46:15.216Z,23.3006
2023-03-29T09:47:16.547Z,23.2850
2023-03-29T09:48:17.957Z,23.3069
2023-03-29T09:49:19.409Z,23.3287
2023-03-29T09:50:30.960Z,23.3494
2023-03-29T09:51:22.342Z,23.3768
2023-03-29T09:52:23.690Z,23.4461
2023-03-29T09:53:25.126Z,23.4902
2023-03-29T09:54:26.534Z,23.4692
2023-03-29T09:55:27.967Z,23.4698
2023-03-29T09:56:29.400Z,23.5045
2023-03-29T09:57:30.943Z,23.5319
2023-03-29T09:58:32.239Z,23.5615
2023-03-29T09:59:33.684Z,23.5456
2023-03-29T10:00:35.105Z,23.5302
2023-03-29T10:01:36.553Z,23.5262
2023-03-29T10:02:38.036Z,23.5399
2023-03-29T10:03:39.404Z,23.5281
2023-03-29T10:04:40.881Z,23.5082
2023-03-29T10:05:42.245Z,23.4865
2023-03-29T10:06:43.676Z,23.4786
2023-03-29T10:07:45.149Z,23.5327
2023-03-29T10:08:46.522Z,23.5651
2023-03-29T10:09:47.980Z,23.5433
2023-03-29T10:10:49.392Z,23.5301
2023-03-29T10:11:50.875Z,23.5170
2023-03-29T10:12:52.256Z,23.5179
2023-03-29T10:13:53.700Z,23.5233
2023-03-29T10:14:55.193Z,23.5272
2023-03-29T10:15:56.549Z,23.5343
2023-03-29T10:16:58.046Z,23.5331
2023-03-29T10:17:59.607Z,23.5394
2023-03-29T10:19:00.932Z,23.5426
2023-03-29T10:20:04.217Z,23.5388
2023-03-29T10:21:04.146Z,23.5387
2023-03-29T10:22:05.223Z,23.5442
2023-03-29T10:23:06.648Z,23.5491
2023-03-29T10:24:08.071Z,23.5666
2023-03-29T10:25:09.491Z,23.6298
2023-03-29T10:26:10.910Z,23.6520
2023-03-29T10:27:12.325Z,23.6607
2023-03-29T10:28:13.764Z,23.6740
2023-03-29T10:29:15.169Z,23.6502
2023-03-29T10:30:16.626Z,23.6276
2023-03-29T10:31:18.075Z,23.6366
2023-03-29T10:32:19.483Z,23.6465
2023-03-29T10:33:20.930Z,23.6595
2023-03-29T10:34:22.319Z,23.6946
2023-03-29T10:35:23.742Z,23.7463
2023-03-29T10:36:25.173Z,23.7451
2023-03-29T10:37:26.613Z,23.7367
2023-03-29T10:38:28.037Z,23.7339
2023-03-29T10:39:29.446Z,23.7246
2023-03-29T10:40:30.947Z,23.7126
2023-03-29T10:41:32.305Z,23.7071
2023-03-29T10:42:33.754Z,23.6949
2023-03-29T10:43:35.170Z,23.7108
2023-03-29T10:44:36.638Z,23.7498
2023-03-29T10:45:38.043Z,23.7638
2023-03-29T10:46:39.496Z,23.7504
2023-03-29T10:47:40.930Z,23.7277
2023-03-29T10:48:42.309Z,23.7337
2023-03-29T10:49:43.741Z,23.7385
2023-03-29T10:50:45.165Z,23.7525
2023-03-29T10:51:46.593Z,23.7304
2023-03-29T10:52:48.022Z,23.7072
2023-03-29T10:53:49.434Z,23.7147
2023-03-29T10:54:50.891Z,23.7102
2023-03-29T10:55:52.309Z,23.7071
2023-03-29T10:56:53.739Z,23.7008
2023-03-29T10:57:55.182Z,23.6786
2023-03-29T10:58:56.625Z,23.6716
2023-03-29T10:59:58.042Z,23.6747
2023-03-29T11:00:59.491Z,23.6836
2023-03-29T11:02:00.910Z,23.7166
2023-03-29T11:03:02.377Z,23.7156
2023-03-29T11:04:03.873Z,23.7286
2023-03-29T11:05:05.211Z,23.7243
2023-03-29T11:06:06.597Z,23.7148
2023-03-29T11:07:08.062Z,23.7067
2023-03-29T11:08:09.486Z,23.6981
2023-03-29T11:09:10.886Z,23.7120
2023-03-29T11:10:12.369Z,23.7651
2023-03-29T11:11:13.739Z,23.7622
2023-03-29T11:12:16.423Z,23.7573
2023-03-29T11:13:16.588Z,23.7584
2023-03-29T11:14:18.032Z,23.7559
2023-03-29T11:15:19.445Z,23.7476
2023-03-29T11:16:20.998Z,23.7330
2023-03-29T11:17:22.390Z,23.7288
2023-03-29T11:18:23.739Z,23.7155
2023-03-29T11:19:25.177Z,23.6967
2023-03-29T11:20:26.573Z,23.6917
2023-03-29T11:21:28.069Z,23.7113
2023-03-29T11:22:29.431Z,23.7104
2023-03-29T11:23:30.866Z,23.7027
2023-03-29T11:24:32.286Z,23.7205
2023-03-29T11:25:33.709Z,23.7282
2023-03-29T11:26:35.205Z,23.7497
2023-03-29T11:27:36.582Z,23.7569
2023-03-29T11:28:37.988Z,23.7893
2023-03-29T11:29:39.432Z,23.8360
2023-03-29T11:30:40.845Z,23.8523
2023-03-29T11:31:42.344Z,23.8667
2023-03-29T11:32:43.725Z,23.8939
2023-03-29T11:33:45.157Z,23.9559
2023-03-29T11:34:46.530Z,23.9388
2023-03-29T11:35:48.131Z,23.9141
2023-03-29T11:36:49.389Z,23.9561
2023-03-29T11:37:50.825Z,23.9995
2023-03-29T11:38:52.242Z,23.9760
2023-03-29T11:39:53.690Z,23.9673
2023-03-29T11:40:55.094Z,23.9793
2023-03-29T11:41:56.564Z,24.0138
2023-03-29T11:42:57.950Z,24.0292
2023-03-29T11:43:59.375Z,23.9978
2023-03-29T11:45:00.810Z,23.9804
2023-03-29T11:46:02.277Z,24.0260
2023-03-29T11:47:03.741Z,24.0514
2023-03-29T11:48:05.176Z,24.0647
2023-03-29T11:49:06.518Z,24.0757
2023-03-29T11:50:07.945Z,24.0972
2023-03-29T11:51:09.365Z,24.1119
2023-03-29T11:52:10.797Z,24.1277
2023-03-29T11:53:12.241Z,24.1486
2023-03-29T11:54:13.641Z,24.1524
2023-03-29T11:55:15.069Z,24.1583
2023-03-29T11:56:16.491Z,24.1466
2023-03-29T11:57:17.999Z,24.1466
2023-03-29T11:58:19.330Z,24.1607
2023-03-29T11:59:20.747Z,24.1916
2023-03-29T12:00:22.176Z,24.2189
2023-03-29T12:01:23.585Z,24.2486
2023-03-29T12:02:25.221Z,24.2799
2023-03-29T12:03:26.495Z,24.3163
2023-03-29T12:04:27.928Z,24.3476
2023-03-29T12:05:29.296Z,24.3678
2023-03-29T12:06:30.741Z,24.3863
2023-03-29T12:07:32.199Z,24.3872
2023-03-29T12:08:33.590Z,24.4185
2023-03-29T12:09:34.998Z,24.4459
2023-03-29T12:10:36.449Z,24.3155
2023-03-29T12:11:37.857Z,23.7491
2023-03-29T12:12:39.310Z,23.5174
2023-03-29T12:13:40.725Z,23.5837
2023-03-29T12:14:42.169Z,23.6870
2023-03-29T12:15:43.604Z,23.7673
2023-03-29T12:16:45.066Z,23.7908
2023-03-29T12:17:46.497Z,23.8613
2023-03-29T12:18:47.882Z,23.9000
2023-03-29T12:19:49.284Z,23.8887
2023-03-29T12:20:50.730Z,23.9251
2023-03-29T12:21:52.137Z,23.9907
2023-03-29T12:22:53.606Z,24.0539